Aitkin, Minnesota
Current Conditions -  °F | °C
As of 7:33 PM on Wednesday 22 Oct 2014 (Local Time) from KAIT Reporting Station
Clear Clear  
Wind Chill: 55°   Ceiling: Unl
Heat Index: 55°   Visibility: 10mi
Dew Point: 43°   Wind: 9mph
Humidity: 63%   Direction: 160°SSE
Pressure: 29.99"   Gusts: 16mph
Location:  46.53°N, 93.71°W
Report Text: KAIT 230033Z AUTO 16008G14KT 10SM CLR 13/06 A2999 RMK AO2
Loading
Personal Weather Stations






























Interactive Weather Map
Tropical Storm Tracking
New forecast layout! Learn more

10-Day Weather Forecast

Advertisements
Track Severe Weather on mobile